Latest Weather Observations for Broken Hill Airport

IDN60801

Issued at 2:32 pm EST Friday 27 May 2016 (issued every 30 minutes, with the page automatically refreshed every 10 minutes)

About weather observations | Map of weather stations | Latest weather observations for NSW | Other Formats
Station Details ID: 047048 Name: BROKEN HILL AIRPORT AWS Lat: -32.00 Lon: 141.47 Height: 281.3 m
Data from the previous 72 hours. | See also: Recent months at Broken Hill Airport
Date/Time
EST
Temp
°C
App
Temp
°C
Dew
Point
Rel
Hum
%
Delta-T
°C
Wind Press
QNH
hPa
Press
MSL
hPa
Rain
since 9 am
mm
Dir
 
Spd
km/h
Gust
km/h
Spd
kts
Gust
kts
27/02:30pm 15.7 10.2 9.1 65 3.4 WNW 28 41 15 22 1010.1 1009.9 0.0
27/02:00pm 14.8 8.3 8.3 65 3.3 WNW 32 43 17 23 1010.6 1010.4 0.0
27/01:31pm 14.6 8.1 8.3 66 3.2 WNW 32 50 17 27 1010.9 1010.7 0.0
27/01:30pm 14.6 8.5 8.3 66 3.2 WNW 30 44 16 24 1011.0 1010.8 0.0
27/01:00pm 15.0 8.6 8.5 65 3.3 NW 32 43 17 23 1011.3 1011.1 0.0
27/12:30pm 15.0 9.2 8.0 63 3.6 NW 28 39 15 21 1011.6 1011.4 0.0
27/12:00pm 14.9 9.1 7.9 63 3.5 NW 28 39 15 21 1012.2 1012.0 0.0
27/11:30am 14.6 9.2 7.9 64 3.4 NW 26 37 14 20 1012.7 1012.5 0.0
27/11:00am 14.6 9.2 6.4 58 4.0 NW 24 32 13 17 1013.3 1013.1 0.0
27/10:30am 14.0 9.2 7.3 64 3.3 NW 22 30 12 16 1013.5 1013.3 0.0
27/10:00am 13.5 9.4 7.9 69 2.8 NW 19 22 10 12 1013.8 1013.6 0.0
27/09:30am 12.8 9.4 7.7 71 2.5 NW 15 20 8 11 1013.6 1013.4 0.0
27/09:00am 11.6 8.7 8.1 79 1.7 NW 13 17 7 9 1013.6 1013.4 0.0
27/08:30am 10.4 7.8 7.6 83 1.4 NNW 11 15 6 8 1013.3 1013.1 0.0
27/08:00am 9.1 6.3 7.1 87 1.0 NW 11 13 6 7 1013.3 1013.1 0.0
27/07:30am 8.0 5.1 6.3 89 0.8 NW 11 13 6 7 1013.2 1013.0 0.0
27/07:00am 8.4 5.5 6.7 89 0.8 NW 11 13 6 7 1012.9 1012.7 0.0
27/06:30am 8.2 5.3 6.5 89 0.8 NW 11 13 6 7 1012.7 1012.5 0.0
27/06:00am 7.7 5.1 6.0 89 0.8 NW 9 11 5 6 1012.6 1012.4 0.0
27/05:30am 7.6 5.4 6.1 90 0.7 NW 7 9 4 5 1012.7 1012.5 0.0
27/05:00am 7.6 5.0 6.2 91 0.6 WNW 9 11 5 6 1012.7 1012.5 0.0
27/04:30am 7.4 5.1 5.9 90 0.7 W 7 7 4 4 1012.6 1012.4 0.0
27/04:00am 7.7 5.5 6.2 90 0.7 W 7 9 4 5 1012.7 1012.5 0.0
27/03:30am 7.9 5.7 6.2 89 0.8 WSW 7 9 4 5 1012.8 1012.6 0.0
27/03:00am 7.7 5.4 5.8 88 0.9 WSW 7 7 4 4 1012.7 1012.5 0.0
27/02:30am 8.1 7.3 6.4 89 0.8 CALM 0 0 0 0 1012.8 1012.6 0.0
27/02:00am 7.5 5.1 5.3 86 1.0 SW 7 9 4 5 1012.9 1012.7 0.0
27/01:30am 8.8 5.5 6.6 86 1.0 WSW 13 15 7 8 1012.8 1012.6 0.0
27/01:00am 9.1 5.9 6.9 86 1.0 WSW 13 15 7 8 1012.9 1012.7 0.0
27/12:30am 9.5 6.3 6.9 84 1.2 WSW 13 15 7 8 1013.0 1012.8 0.0
27/12:00am 9.6 6.5 7.2 85 1.2 W 13 15 7 8 1013.1 1012.9 0.0
 
Date/Time
EST
Temp
°C
App
Temp
°C
Dew
Point
Rel
Hum
%
Delta-T
°C
Wind Press
QNH
hPa
Press
MSL
hPa
Rain
since 9 am
mm
Dir
 
Spd
km/h
Gust
km/h
Spd
kts
Gust
kts
26/11:30pm 10.0 7.4 7.8 86 1.1 WSW 11 15 6 8 1012.8 1012.6 0.0
26/11:00pm 10.1 7.1 7.9 86 1.1 W 13 13 7 7 1012.7 1012.5 0.0
26/10:30pm 10.2 7.7 8.0 86 1.1 WSW 11 11 6 6 1012.9 1012.7 0.0
26/10:00pm 10.7 8.3 8.6 87 1.0 W 11 13 6 7 1013.0 1012.8 0.0
26/09:30pm 11.1 9.1 8.8 86 1.2 W 9 11 5 6 1012.7 1012.5 0.0
26/09:00pm 11.5 9.6 8.9 84 1.3 WSW 9 11 5 6 1012.2 1012.0 0.0
26/08:30pm 11.7 9.4 9.1 84 1.3 WSW 11 13 6 7 1012.0 1011.8 0.0
26/08:00pm 12.1 9.9 9.3 83 1.4 WSW 11 15 6 8 1011.5 1011.3 0.0
26/07:30pm 12.2 10.1 9.6 84 1.3 WSW 11 13 6 7 1011.2 1011.0 0.0
26/07:00pm 12.1 9.9 9.5 84 1.3 W 11 13 6 7 1011.3 1011.1 0.0
26/06:30pm 11.9 9.6 8.9 82 1.5 WSW 11 11 6 6 1011.0 1010.8 0.0
26/06:00pm 12.8 10.1 8.9 77 2.0 SW 13 17 7 9 1010.4 1010.2 0.0
26/05:30pm 13.8 9.9 8.6 71 2.7 SW 19 24 10 13 1010.2 1010.0 0.0
26/05:00pm 15.1 10.6 8.6 65 3.3 WSW 22 30 12 16 1009.8 1009.6 0.0
26/04:30pm 15.3 11.3 9.2 67 3.2 WSW 20 28 11 15 1009.4 1009.2 0.0
26/04:00pm 15.8 9.5 9.0 64 3.5 SW 32 41 17 22 1009.0 1008.8 0.0
26/03:30pm 16.2 11.1 10.5 69 3.1 SW 28 35 15 19 1008.8 1008.6 0.0
26/03:00pm 16.2 11.1 10.7 70 3.0 SW 28 35 15 19 1008.5 1008.2 0.0
26/02:30pm 16.6 10.8 10.7 68 3.2 SW 32 41 17 22 1008.5 1008.2 0.0
26/02:00pm 16.1 10.0 10.4 69 3.1 SW 33 41 18 22 1008.3 1008.0 0.0
26/01:30pm 15.8 10.6 11.6 76 2.3 SW 30 37 16 20 1008.3 1008.0 0.0
26/01:00pm 15.7 10.7 12.3 80 1.9 SW 30 37 16 20 1008.1 1007.8 0.0
26/12:30pm 16.7 12.7 11.8 73 2.7 WSW 24 33 13 18 1007.8 1007.6 0.0
26/12:12pm 16.5 12.7 12.3 76 2.3 WSW 24 33 13 18 1008.2 1007.9 0.0
26/12:00pm 16.8 12.2 12.3 75 2.5 W 28 35 15 19 1008.5 1008.2 0.0
26/11:30am 15.8 11.3 12.7 82 1.7 W 28 37 15 20 1008.8 1008.6 0.0
26/11:19am 15.6 11.2 12.9 84 1.5 W 28 37 15 20 1008.9 1008.7 0.0
26/11:00am 16.1 11.7 13.0 82 1.7 WNW 28 37 15 20 1009.0 1008.8 0.0
26/10:30am 15.4 11.0 12.9 85 1.4 WNW 28 39 15 21 1008.6 1008.3 0.0
26/10:03am 14.7 11.1 12.9 89 1.0 WNW 24 32 13 17 1008.7 1008.4 0.0
26/10:00am 14.5 10.8 12.7 89 1.0 WNW 24 32 13 17 1008.7 1008.4 0.0
26/09:30am 13.4 9.9 12.3 93 0.6 WNW 22 30 12 16 1008.9 1008.7 15.8
26/09:00am 13.0 9.1 12.1 94 0.5 WNW 24 32 13 17 1009.1 1008.9 15.8
26/08:53am 13.1 9.6 12.3 95 0.4 WNW 22 30 12 16 1009.1 1008.9 15.8
26/08:30am 12.4 8.4 11.8 96 0.3 WNW 24 33 13 18 1009.0 1008.8 15.8
26/08:00am 12.4 9.2 11.8 96 0.3 WNW 20 26 11 14 1008.5 1008.2 15.8
26/07:30am 12.5 8.5 11.9 96 0.3 WNW 24 32 13 17 1008.4 1008.1 15.8
26/07:00am 12.8 8.9 12.2 96 0.3 WNW 24 32 13 17 1008.4 1008.1 15.8
26/06:30am 13.0 8.8 12.4 96 0.3 WNW 26 32 14 17 1008.1 1007.8 15.8
26/06:00am 13.1 8.5 12.3 95 0.4 WNW 28 37 15 20 1008.1 1007.8 15.8
26/05:30am 13.6 9.5 12.8 95 0.4 NW 26 35 14 19 1007.8 1007.6 15.8
26/05:10am 14.5 10.3 13.5 94 0.6 WNW 28 37 15 20 1007.8 1007.6 15.8
26/05:00am 14.9 10.4 13.8 93 0.6 NW 30 39 16 21 1007.8 1007.6 15.8
26/04:30am 15.1 11.8 14.0 93 0.6 NW 24 39 13 21 1007.7 1007.5 15.8
26/04:05am 15.0 12.1 13.9 93 0.6 NW 22 35 12 19 1007.5 1007.3 15.8
26/04:00am 15.0 11.7 13.9 93 0.6 NW 24 35 13 19 1007.7 1007.5 15.8
26/03:30am 15.0 12.0 13.7 92 0.7 NNW 22 35 12 19 1007.7 1007.5 15.8
26/03:00am 14.9 12.2 13.6 92 0.7 NNW 20 32 11 17 1007.9 1007.7 15.8
26/02:30am 14.1 11.2 13.0 93 0.6 NNW 20 26 11 14 1008.4 1008.1 15.6
26/02:00am 13.8 10.9 12.4 91 0.8 N 19 24 10 13 1008.1 1007.8 14.8
26/01:30am 13.2 9.5 11.4 89 1.0 N 22 37 12 20 1008.3 1008.0 14.8
26/01:00am 13.0 9.6 11.2 89 1.0 N 20 28 11 15 1008.7 1008.4 14.8
26/12:30am 12.7 9.4 10.9 89 1.0 N 19 26 10 14 1009.5 1009.3 14.6
26/12:00am 12.4 9.4 10.6 89 0.9 N 17 26 9 14 1010.2 1010.0 14.6
 
Date/Time
EST
Temp
°C
App
Temp
°C
Dew
Point
Rel
Hum
%
Delta-T
°C
Wind Press
QNH
hPa
Press
MSL
hPa
Rain
since 9 am
mm
Dir
 
Spd
km/h
Gust
km/h
Spd
kts
Gust
kts
25/11:30pm 11.9 7.9 10.3 90 0.8 N 22 33 12 18 1010.2 1010.0 14.6
25/11:00pm 11.6 6.3 10.0 90 0.8 N 28 39 15 21 1009.9 1009.7 14.6
25/10:30pm 11.5 6.2 9.9 90 0.8 N 28 41 15 22 1010.6 1010.4 14.6
25/10:00pm 11.0 5.9 9.3 89 0.9 N 26 35 14 19 1011.1 1010.9 14.4
25/09:30pm 10.8 7.0 9.2 90 0.8 N 19 28 10 15 1012.2 1012.0 14.0
25/09:00pm 10.6 6.6 9.2 91 0.7 N 20 30 11 16 1012.6 1012.4 13.8
25/08:57pm 10.5 6.5 9.1 91 0.7 N 20 26 11 14 1012.3 1012.1 13.8
25/08:30pm 10.5 7.0 8.8 89 0.9 N 17 28 9 15 1012.9 1012.7 10.6
25/08:00pm 10.5 6.4 8.6 88 0.9 NNE 20 26 11 14 1011.8 1011.5 8.8
25/07:30pm 10.4 5.9 8.7 89 0.8 NNE 22 28 12 15 1011.4 1011.2 8.8
25/07:00pm 10.6 5.7 8.5 87 1.0 NNE 24 35 13 19 1011.9 1011.7 7.8
25/06:30pm 11.2 8.0 9.8 91 0.7 N 17 24 9 13 1012.0 1011.8 6.2
25/06:00pm 11.1 7.2 9.5 90 0.8 NNE 20 28 11 15 1011.3 1011.1 5.0
25/05:30pm 10.7 5.4 8.6 87 1.0 NNE 26 35 14 19 1011.3 1011.1 5.0
25/05:00pm 10.7 5.1 8.6 87 1.0 NNE 28 35 15 19 1011.2 1011.0 5.0
25/04:30pm 10.8 6.3 8.4 85 1.2 NNE 22 28 12 15 1012.0 1011.8 5.0
25/04:00pm 10.6 6.7 8.5 87 1.0 NNE 19 28 10 15 1012.0 1011.8 5.0
25/03:30pm 10.5 6.8 8.1 85 1.2 N 17 22 9 12 1012.7 1012.5 4.8
25/03:00pm 10.6 7.2 7.8 83 1.4 N 15 20 8 11 1013.6 1013.4 4.6
25/02:30pm 10.7 7.8 8.1 84 1.3 N 13 19 7 10 1013.9 1013.7 4.0
25/02:00pm 10.8 8.2 7.9 82 1.4 N 11 15 6 8 1014.3 1014.1 2.6
25/01:30pm 10.7 7.7 7.6 81 1.5 NNW 13 17 7 9 1014.6 1014.4 1.8
25/01:00pm 11.1 7.1 6.6 74 2.2 NW 17 20 9 11 1015.2 1015.1 0.6
25/12:30pm 13.1 8.3 4.5 56 4.0 NW 19 32 10 17 1016.0 1015.8 0.0
25/12:00pm 14.1 10.2 3.6 49 4.8 NNW 13 19 7 10 1016.3 1016.1 0.0
25/11:30am 14.7 10.0 2.9 45 5.4 N 17 26 9 14 1016.2 1016.0 0.0
25/11:00am 14.1 9.9 3.6 49 4.8 NNE 15 22 8 12 1016.4 1016.2 0.0
25/10:30am 13.4 9.3 4.6 55 4.1 NNE 15 17 8 9 1016.8 1016.6 0.0
25/10:00am 13.5 9.9 3.0 49 4.7 N 11 17 6 9 1017.1 1016.9 0.0
25/09:30am 13.5 9.2 3.0 49 4.7 NE 15 19 8 10 1017.0 1016.8 0.0
25/09:00am 13.8 8.4 1.1 42 5.5 N 19 28 10 15 1016.7 1016.5 0.0
25/08:30am 13.6 8.6 1.6 44 5.3 N 17 26 9 14 1016.7 1016.5 0.0
25/08:00am 13.2 6.8 1.2 44 5.2 N 24 35 13 19 1016.2 1016.0 0.0
25/07:30am 11.0 6.2 2.6 56 3.7 NNE 17 20 9 11 1016.1 1015.9 0.0
25/07:00am 10.6 5.4 2.2 56 3.6 NE 19 24 10 13 1015.7 1015.5 0.0
25/06:30am 11.6 5.7 1.8 51 4.2 NNE 22 30 12 16 1015.9 1015.7 0.0
25/06:00am 11.6 6.1 2.1 52 4.1 NNE 20 28 11 15 1015.8 1015.6 0.0
25/05:30am 10.5 5.0 2.1 56 3.6 NNE 20 24 11 13 1016.1 1015.9 0.0
25/05:00am 10.3 5.4 1.7 55 3.7 NNE 17 20 9 11 1016.3 1016.1 0.0
25/04:30am 10.6 4.7 1.4 53 3.9 NNE 22 30 12 16 1016.5 1016.3 0.0
25/04:00am 10.0 4.5 1.6 56 3.6 NNE 20 24 11 13 1016.7 1016.5 0.0
25/03:30am 10.5 5.3 2.4 57 3.5 NNE 19 20 10 11 1017.3 1017.1 0.0
25/03:00am 8.6 4.4 1.5 61 3.0 NNE 13 17 7 9 1017.7 1017.5 0.0
25/02:30am 9.9 5.3 1.8 57 3.4 NNE 15 17 8 9 1018.1 1018.0 0.0
25/02:00am 9.4 5.7 2.3 61 3.0 NNE 11 15 6 8 1018.4 1018.3 0.0
25/01:30am 7.4 3.6 1.5 66 2.4 NE 11 13 6 7 1018.6 1018.5 0.0
25/01:00am 7.0 3.2 1.5 68 2.3 NE 11 13 6 7 1019.0 1018.9 0.0
25/12:30am 8.2 4.0 1.4 62 2.8 NE 13 17 7 9 1019.3 1019.1 0.0
25/12:00am 9.8 5.1 1.2 55 3.6 NNE 15 15 8 8 1019.6 1019.4 0.0
 
Date/Time
EST
Temp
°C
App
Temp
°C
Dew
Point
Rel
Hum
%
Delta-T
°C
Wind Press
QNH
hPa
Press
MSL
hPa
Rain
since 9 am
mm
Dir
 
Spd
km/h
Gust
km/h
Spd
kts
Gust
kts
24/11:30pm 11.3 6.7 1.3 50 4.3 NNE 15 17 8 9 1019.6 1019.4 0.0
24/11:00pm 11.6 7.4 1.5 50 4.3 NNE 13 17 7 9 1020.0 1019.8 0.0
24/10:30pm 11.4 7.2 1.6 51 4.2 NNE 13 17 7 9 1020.3 1020.1 0.0
24/10:00pm 10.1 5.9 1.7 56 3.6 NNE 13 13 7 7 1020.4 1020.2 0.0
24/09:30pm 11.9 7.7 1.5 49 4.5 NNE 13 13 7 7 1020.6 1020.4 0.0
24/09:00pm 12.3 8.1 1.6 48 4.6 NNE 13 15 7 8 1020.6 1020.4 0.0
24/08:30pm 9.1 5.6 1.0 57 3.4 NNE 9 13 5 7 1020.7 1020.5 0.0
24/08:00pm 13.0 9.2 2.0 47 4.8 NNE 11 11 6 6 1020.7 1020.5 0.0
24/07:30pm 11.9 8.0 1.3 48 4.5 NNE 11 13 6 7 1020.6 1020.4 0.0
24/07:00pm 13.6 9.9 2.2 46 5.0 NNE 11 13 6 7 1020.6 1020.4 0.0
24/06:30pm 14.0 9.9 2.3 45 5.2 NNE 13 15 7 8 1020.7 1020.5 0.0
24/06:00pm 14.7 10.6 2.3 43 5.6 NE 13 15 7 8 1020.5 1020.3 0.0
24/05:30pm 16.3 12.2 2.0 38 6.5 NE 13 15 7 8 1020.6 1020.4 0.0
24/05:00pm 17.9 14.0 1.4 33 7.5 NNE 11 17 6 9 1020.6 1020.4 0.0
24/04:30pm 18.4 13.8 1.4 32 7.7 NE 15 20 8 11 1020.5 1020.3 0.0
24/04:00pm 18.6 14.0 1.6 32 7.8 NNE 15 20 8 11 1020.7 1020.5 0.0
24/03:30pm 18.9 14.7 1.4 31 8.0 NE 13 20 7 11 1020.8 1020.6 0.0

Other Formats:

Comma delimited format used in spreadsheet applications
http://www.bom.gov.au/fwo/IDN60801/IDN60801.94691.axf

JavaScript Object Notation format (JSON) in row-major order
http://www.bom.gov.au/fwo/IDN60801/IDN60801.94691.json